Time;durP1;ratioP1;P1;durP2;ratioP2;P2;SDS_P1;SDS_P2;PMS_P1;PMS_P2;Temp;Humidity;BMP_temperature;BMP_pressure;BME280_temperature;BME280_humidity;BME280_pressure;Samples;Min_cycle;Max_cycle;Signal;HPM_P1;HPM_P2
2021/01/09 00:02:19;;;;;;;34.80;19.03;;;;;;;;;;775941;178;925456;-69
2021/01/09 00:04:45;;;;;;;35.80;20.27;;;;;;;;;;771806;178;915501;-68
2021/01/09 00:07:10;;;;;;;36.13;21.30;;;;;;;;;;779397;178;918107;-69
2021/01/09 00:09:36;;;;;;;34.93;20.43;;;;;;;;;;773123;178;918411;-70
2021/01/09 00:12:02;;;;;;;42.65;20.88;;;;;;;;;;773624;178;941969;-69
2021/01/09 00:14:28;;;;;;;42.77;22.10;;;;;;;;;;782479;177;918730;-69
2021/01/09 00:16:54;;;;;;;37.00;20.97;;;;;;;;;;777451;178;920095;-71
2021/01/09 00:19:20;;;;;;;39.27;22.57;;;;;;;;;;773450;179;918369;-70
2021/01/09 00:21:46;;;;;;;38.30;20.33;;;;;;;;;;776994;179;919449;-70
2021/01/09 00:24:11;;;;;;;34.05;19.17;;;;;;;;;;779797;179;919640;-70
2021/01/09 00:26:38;;;;;;;39.00;21.53;;;;;;;;;;776408;179;918896;-69
2021/01/09 00:29:04;;;;;;;38.10;21.37;;;;;;;;;;777509;179;918878;-69
2021/01/09 00:31:30;;;;;;;37.43;20.97;;;;;;;;;;774267;179;919029;-70
2021/01/09 00:33:56;;;;;;;37.00;19.80;;;;;;;;;;771990;178;920469;-69
2021/01/09 00:36:22;;;;;;;43.23;21.00;;;;;;;;;;774438;179;918929;-69
2021/01/09 00:38:47;;;;;;;41.90;20.83;;;;;;;;;;776755;179;918410;-70
2021/01/09 00:41:13;;;;;;;40.60;20.30;;;;;;;;;;770920;179;919278;-70
2021/01/09 00:43:39;;;;;;;36.60;19.20;;;;;;;;;;774229;178;919622;-70
2021/01/09 00:46:05;;;;;;;44.57;21.87;;;;;;;;;;782341;178;919233;-70
2021/01/09 00:48:31;;;;;;;36.77;21.27;;;;;;;;;;775149;177;918441;-70
2021/01/09 00:50:57;;;;;;;36.80;21.30;;;;;;;;;;775106;178;926781;-70
2021/01/09 00:53:23;;;;;;;36.77;20.53;;;;;;;;;;778317;178;918246;-70
2021/01/09 00:55:48;;;;;;;35.43;20.83;;;;;;;;;;776192;178;918819;-70
2021/01/09 00:58:14;;;;;;;38.83;21.13;;;;;;;;;;777840;178;918973;-71
2021/01/09 01:00:40;;;;;;;33.73;22.17;;;;;;;;;;774680;178;918602;-70
2021/01/09 01:03:06;;;;;;;35.13;20.23;;;;;;;;;;781200;177;918630;-76
2021/01/09 01:05:32;;;;;;;32.67;20.60;;;;;;;;;;779240;178;918927;-71
2021/01/09 01:07:58;;;;;;;39.70;21.83;;;;;;;;;;772666;178;919260;-70
2021/01/09 01:10:24;;;;;;;34.90;20.77;;;;;;;;;;780417;178;1041836;-71
2021/01/09 01:12:52;;;;;;;35.50;19.27;;;;;;;;;;770009;178;919423;-71
2021/01/09 01:15:16;;;;;;;31.93;19.67;;;;;;;;;;775081;178;918816;-71
2021/01/09 01:17:41;;;;;;;34.00;18.73;;;;;;;;;;782665;178;918886;-71
2021/01/09 01:20:07;;;;;;;39.20;21.70;;;;;;;;;;773418;179;918366;-70
2021/01/09 01:22:33;;;;;;;42.22;21.30;;;;;;;;;;769967;179;921784;-71
2021/01/09 01:24:59;;;;;;;43.60;22.00;;;;;;;;;;771567;179;919397;-71
2021/01/09 01:27:25;;;;;;;38.90;21.10;;;;;;;;;;780100;179;918507;-71
2021/01/09 01:29:51;;;;;;;39.47;20.30;;;;;;;;;;771162;178;917952;-71
2021/01/09 01:32:17;;;;;;;40.17;21.30;;;;;;;;;;773566;179;918712;-70
2021/01/09 01:34:42;;;;;;;35.10;20.60;;;;;;;;;;778812;178;917929;-71
2021/01/09 01:37:08;;;;;;;44.20;24.13;;;;;;;;;;772084;179;918962;-71
2021/01/09 01:39:34;;;;;;;37.90;21.67;;;;;;;;;;771911;177;918563;-71
2021/01/09 01:42:00;;;;;;;37.67;21.17;;;;;;;;;;779582;179;918654;-71
2021/01/09 01:44:26;;;;;;;41.05;22.60;;;;;;;;;;778070;178;920776;-70
2021/01/09 01:46:52;;;;;;;36.10;21.47;;;;;;;;;;773785;179;919111;-70
2021/01/09 01:49:18;;;;;;;39.90;22.37;;;;;;;;;;783510;178;918798;-70
2021/01/09 01:51:43;;;;;;;40.30;22.83;;;;;;;;;;775624;178;922159;-71
2021/01/09 01:54:10;;;;;;;38.67;22.97;;;;;;;;;;777754;179;933120;-71
2021/01/09 01:56:35;;;;;;;39.30;23.33;;;;;;;;;;771378;178;917609;-69
2021/01/09 01:59:01;;;;;;;43.10;22.93;;;;;;;;;;788529;177;917681;-70
2021/01/09 02:01:27;;;;;;;39.23;23.37;;;;;;;;;;762642;178;2789280;-71
2021/01/09 02:03:53;;;;;;;36.60;22.85;;;;;;;;;;776994;178;914816;-70
2021/01/09 02:06:19;;;;;;;38.17;22.30;;;;;;;;;;780320;178;918619;-70
2021/01/09 02:08:46;;;;;;;39.10;21.80;;;;;;;;;;781113;178;917196;-70
2021/01/09 02:11:27;;;;;;;37.77;22.40;;;;;;;;;;776434;176;921741;-70
2021/01/09 02:13:52;;;;;;;35.93;22.27;;;;;;;;;;773565;177;915622;-70
2021/01/09 02:16:18;;;;;;;45.90;23.87;;;;;;;;;;779358;178;917659;-70
2021/01/09 02:18:44;;;;;;;40.10;21.90;;;;;;;;;;771627;178;918662;-70
2021/01/09 02:21:26;;;;;;;41.30;22.10;;;;;;;;;;776778;178;918264;-70
2021/01/09 02:23:51;;;;;;;41.73;22.13;;;;;;;;;;777427;178;918935;-69
2021/01/09 02:26:18;;;;;;;39.88;22.95;;;;;;;;;;778019;178;919511;-70
2021/01/09 02:28:44;;;;;;;42.60;23.27;;;;;;;;;;776332;178;918843;-69
2021/01/09 02:31:09;;;;;;;38.43;22.03;;;;;;;;;;770900;178;918920;-69
2021/01/09 02:33:35;;;;;;;42.43;22.60;;;;;;;;;;771414;179;927172;-69
2021/01/09 02:36:01;;;;;;;42.37;25.67;;;;;;;;;;775708;179;918964;-69
2021/01/09 02:38:27;;;;;;;43.13;22.87;;;;;;;;;;773150;179;919287;-68
2021/01/09 02:40:53;;;;;;;35.37;21.30;;;;;;;;;;773034;179;918979;-68
2021/01/09 02:43:19;;;;;;;38.77;21.10;;;;;;;;;;777356;179;919277;-68
2021/01/09 02:45:44;;;;;;;33.13;19.20;;;;;;;;;;778143;179;919255;-67
2021/01/09 02:48:10;;;;;;;39.20;18.80;;;;;;;;;;770916;178;1236934;-67
2021/01/09 02:50:36;;;;;;;33.50;21.07;;;;;;;;;;781419;178;918966;-67
2021/01/09 02:53:02;;;;;;;33.28;21.20;;;;;;;;;;775153;178;919602;-67
2021/01/09 02:55:28;;;;;;;30.00;18.70;;;;;;;;;;777802;179;919346;-67
2021/01/09 02:57:54;;;;;;;34.30;20.27;;;;;;;;;;777515;179;919320;-65
2021/01/09 03:00:20;;;;;;;36.37;19.30;;;;;;;;;;775855;180;918133;-67
2021/01/09 03:02:46;;;;;;;37.63;21.57;;;;;;;;;;772344;178;920047;-66
2021/01/09 03:05:11;;;;;;;40.77;22.10;;;;;;;;;;772010;179;919216;-67
2021/01/09 03:07:37;;;;;;;40.70;22.57;;;;;;;;;;777841;178;919050;-67
2021/01/09 03:10:04;;;;;;;44.80;23.83;;;;;;;;;;774661;178;1369924;-67
2021/01/09 03:12:29;;;;;;;39.80;21.90;;;;;;;;;;781028;177;918864;-67
2021/01/09 03:14:55;;;;;;;39.53;21.65;;;;;;;;;;782701;177;919215;-67
2021/01/09 03:17:21;;;;;;;40.57;21.80;;;;;;;;;;773021;178;918931;-66
2021/01/09 03:19:47;;;;;;;45.35;21.92;;;;;;;;;;768157;180;917909;-66
2021/01/09 03:22:15;;;;;;;38.43;22.70;;;;;;;;;;778785;178;929192;-66
2021/01/09 03:24:39;;;;;;;45.85;23.23;;;;;;;;;;768738;179;919258;-66
2021/01/09 03:27:05;;;;;;;42.90;23.00;;;;;;;;;;774824;178;919096;-66
2021/01/09 03:29:30;;;;;;;45.13;23.87;;;;;;;;;;768875;178;2473115;-66
2021/01/09 03:31:56;;;;;;;45.30;24.63;;;;;;;;;;766935;181;919212;-66
2021/01/09 03:34:22;;;;;;;42.50;22.37;;;;;;;;;;776614;178;918950;-66
2021/01/09 03:36:48;;;;;;;39.90;22.60;;;;;;;;;;776432;178;948961;-66
2021/01/09 03:39:14;;;;;;;37.77;20.83;;;;;;;;;;779973;179;918820;-65
2021/01/09 03:41:40;;;;;;;49.77;25.13;;;;;;;;;;773371;179;919374;-66
2021/01/09 03:44:06;;;;;;;40.60;23.00;;;;;;;;;;770293;179;915363;-66
2021/01/09 03:46:32;;;;;;;44.40;24.27;;;;;;;;;;778725;178;913402;-66
2021/01/09 03:48:57;;;;;;;43.83;23.03;;;;;;;;;;777309;178;937718;-66
2021/01/09 03:51:23;;;;;;;43.90;26.20;;;;;;;;;;769953;178;919492;-66
2021/01/09 03:53:50;;;;;;;56.75;29.27;;;;;;;;;;774170;179;919095;-66
2021/01/09 03:56:16;;;;;;;50.80;25.80;;;;;;;;;;771511;180;913444;-66
2021/01/09 03:58:42;;;;;;;46.87;25.80;;;;;;;;;;770330;178;920138;-67
2021/01/09 04:01:07;;;;;;;43.47;24.73;;;;;;;;;;768719;178;1123743;-66
2021/01/09 04:03:33;;;;;;;38.47;22.93;;;;;;;;;;779695;177;919927;-67
2021/01/09 04:05:59;;;;;;;43.40;23.77;;;;;;;;;;755272;183;918593;-67
2021/01/09 04:08:25;;;;;;;41.77;23.80;;;;;;;;;;751067;184;912651;-67
2021/01/09 04:10:51;;;;;;;48.83;24.63;;;;;;;;;;754328;185;915338;-67
2021/01/09 04:13:17;;;;;;;47.53;27.80;;;;;;;;;;749259;184;915803;-67
2021/01/09 04:15:43;;;;;;;41.43;23.37;;;;;;;;;;773509;178;917147;-66
2021/01/09 04:18:08;;;;;;;46.03;24.77;;;;;;;;;;775589;179;919056;-67
2021/01/09 04:20:43;;;;;;;72.00;27.57;;;;;;;;;;774738;178;919107;-67
2021/01/09 04:23:09;;;;;;;42.17;24.37;;;;;;;;;;777286;178;954216;-68
2021/01/09 04:25:35;;;;;;;49.37;25.70;;;;;;;;;;780018;178;918709;-68
2021/01/09 04:28:01;;;;;;;50.30;26.20;;;;;;;;;;783502;178;918690;-68
2021/01/09 04:30:27;;;;;;;50.43;24.67;;;;;;;;;;776638;178;919030;-68
2021/01/09 04:32:53;;;;;;;38.45;23.40;;;;;;;;;;775854;178;921592;-68
2021/01/09 04:35:19;;;;;;;50.43;25.57;;;;;;;;;;784263;178;918504;-68
2021/01/09 04:37:44;;;;;;;42.60;23.27;;;;;;;;;;771262;178;919339;-69
2021/01/09 04:40:11;;;;;;;47.70;26.47;;;;;;;;;;779626;178;918740;-68
2021/01/09 04:42:36;;;;;;;42.80;24.27;;;;;;;;;;775435;178;919078;-69
2021/01/09 04:45:02;;;;;;;45.83;26.20;;;;;;;;;;780578;178;918694;-69
2021/01/09 04:47:29;;;;;;;46.87;27.00;;;;;;;;;;769097;178;918382;-69
2021/01/09 04:49:55;;;;;;;52.97;29.77;;;;;;;;;;771125;180;919167;-68
2021/01/09 04:52:21;;;;;;;51.72;26.20;;;;;;;;;;777066;178;922472;-68
2021/01/09 04:54:46;;;;;;;50.47;28.53;;;;;;;;;;778921;178;919037;-69
2021/01/09 04:57:12;;;;;;;52.03;26.95;;;;;;;;;;769057;178;2012481;-68
2021/01/09 04:59:38;;;;;;;48.87;28.10;;;;;;;;;;783583;177;918922;-69
2021/01/09 05:02:04;;;;;;;47.85;25.15;;;;;;;;;;777099;179;919032;-69
2021/01/09 05:04:30;;;;;;;52.67;27.33;;;;;;;;;;774118;178;918700;-69
2021/01/09 05:06:56;;;;;;;44.83;25.80;;;;;;;;;;778320;176;919333;-69
2021/01/09 05:09:21;;;;;;;46.33;29.20;;;;;;;;;;775222;180;919280;-69
2021/01/09 05:11:47;;;;;;;52.40;27.17;;;;;;;;;;773980;179;918914;-69
2021/01/09 05:14:13;;;;;;;48.93;26.63;;;;;;;;;;774180;178;920230;-69
2021/01/09 05:16:39;;;;;;;52.77;26.83;;;;;;;;;;781961;178;919067;-69
2021/01/09 05:19:05;;;;;;;54.57;28.77;;;;;;;;;;774856;178;918721;-69
2021/01/09 05:21:31;;;;;;;52.80;26.00;;;;;;;;;;776044;179;929943;-69
2021/01/09 05:23:59;;;;;;;44.47;26.03;;;;;;;;;;777802;178;918861;-69
2021/01/09 05:26:24;;;;;;;54.37;26.37;;;;;;;;;;769950;179;918647;-70
2021/01/09 05:28:50;;;;;;;42.35;24.63;;;;;;;;;;770876;178;919943;-70
2021/01/09 05:31:16;;;;;;;38.43;24.70;;;;;;;;;;773939;178;919234;-69
2021/01/09 05:33:42;;;;;;;48.40;28.20;;;;;;;;;;767041;180;919216;-69
2021/01/09 05:36:08;;;;;;;48.73;24.87;;;;;;;;;;774130;178;919146;-70
2021/01/09 05:38:35;;;;;;;45.77;22.93;;;;;;;;;;777103;178;918673;-70
2021/01/09 05:41:03;;;;;;;44.53;25.97;;;;;;;;;;781002;177;918467;-70
2021/01/09 05:43:29;;;;;;;48.43;26.60;;;;;;;;;;777673;178;919251;-70
2021/01/09 05:45:55;;;;;;;49.53;27.42;;;;;;;;;;773382;177;918791;-69
2021/01/09 05:48:20;;;;;;;55.83;26.70;;;;;;;;;;778411;178;918440;-70
2021/01/09 05:50:46;;;;;;;56.33;29.87;;;;;;;;;;774445;179;918786;-70
2021/01/09 05:53:12;;;;;;;53.20;27.63;;;;;;;;;;777354;178;919027;-70
2021/01/09 05:55:39;;;;;;;60.77;30.80;;;;;;;;;;769319;178;919935;-70
2021/01/09 05:58:04;;;;;;;51.08;28.83;;;;;;;;;;776923;180;936017;-70
2021/01/09 06:00:30;;;;;;;64.20;30.80;;;;;;;;;;769822;178;920390;-70
2021/01/09 06:02:59;;;;;;;58.87;30.50;;;;;;;;;;777594;178;916110;-70
2021/01/09 06:05:28;;;;;;;55.80;28.50;;;;;;;;;;778189;178;911761;-71
2021/01/09 06:07:54;;;;;;;50.63;27.53;;;;;;;;;;767426;179;915602;-71
2021/01/09 06:10:19;;;;;;;52.67;29.47;;;;;;;;;;773971;178;914660;-71
2021/01/09 06:12:58;;;;;;;49.47;28.30;;;;;;;;;;780409;178;920008;-71
2021/01/09 06:15:24;;;;;;;49.50;29.40;;;;;;;;;;769209;179;938404;-71
2021/01/09 06:17:51;;;;;;;54.90;30.10;;;;;;;;;;772065;178;918392;-71
2021/01/09 06:20:19;;;;;;;59.60;29.20;;;;;;;;;;773843;178;915972;-72
2021/01/09 06:22:45;;;;;;;51.03;27.30;;;;;;;;;;780248;178;918746;-71
2021/01/09 06:25:11;;;;;;;58.20;31.50;;;;;;;;;;783768;178;919014;-71
2021/01/09 06:27:37;;;;;;;61.90;32.20;;;;;;;;;;769680;178;2483145;-70
2021/01/09 06:30:03;;;;;;;53.65;30.58;;;;;;;;;;777552;178;919239;-71
2021/01/09 06:32:29;;;;;;;55.30;31.50;;;;;;;;;;764518;180;918456;-71
2021/01/09 06:34:54;;;;;;;59.67;31.40;;;;;;;;;;772950;176;927252;-72
2021/01/09 06:37:20;;;;;;;56.27;30.70;;;;;;;;;;773645;178;919818;-71
2021/01/09 06:39:46;;;;;;;64.20;34.10;;;;;;;;;;777915;179;918873;-71
2021/01/09 06:42:12;;;;;;;51.17;29.80;;;;;;;;;;774673;178;918830;-71
2021/01/09 06:44:38;;;;;;;69.17;32.03;;;;;;;;;;773674;177;919077;-71
2021/01/09 06:47:04;;;;;;;55.00;28.77;;;;;;;;;;775091;178;918414;-71
2021/01/09 06:49:29;;;;;;;59.50;30.65;;;;;;;;;;777460;180;918845;-71
2021/01/09 06:51:57;;;;;;;57.73;30.00;;;;;;;;;;762129;178;3633704;-73
2021/01/09 06:54:22;;;;;;;54.23;28.80;;;;;;;;;;776418;178;920183;-71
2021/01/09 06:56:48;;;;;;;58.50;32.27;;;;;;;;;;783422;178;918738;-72
2021/01/09 06:59:34;;;;;;;62.43;35.20;;;;;;;;;;775020;178;918923;-72
2021/01/09 07:02:06;;;;;;;72.23;36.47;;;;;;;;;;775326;178;919165;-71
2021/01/09 07:04:38;;;;;;;64.80;35.03;;;;;;;;;;775248;179;1021783;-71
2021/01/09 07:07:04;;;;;;;61.57;30.33;;;;;;;;;;766950;178;918976;-72
2021/01/09 07:09:30;;;;;;;60.67;32.97;;;;;;;;;;779580;178;918738;-72
2021/01/09 07:11:56;;;;;;;62.80;32.40;;;;;;;;;;777754;178;1020820;-71
2021/01/09 07:14:22;;;;;;;58.50;31.10;;;;;;;;;;775837;178;919068;-71
2021/01/09 07:16:48;;;;;;;59.13;30.98;;;;;;;;;;780559;178;918246;-71
2021/01/09 07:19:14;;;;;;;61.83;27.87;;;;;;;;;;775370;179;629058;-71
2021/01/09 07:21:40;;;;;;;54.50;29.03;;;;;;;;;;773415;178;919357;-72
2021/01/09 07:24:07;;;;;;;57.10;28.70;;;;;;;;;;751178;181;919311;-71
2021/01/09 07:26:33;;;;;;;47.90;25.60;;;;;;;;;;757773;184;918379;-73
2021/01/09 07:28:59;;;;;;;49.00;26.87;;;;;;;;;;740566;184;919411;-72
2021/01/09 07:31:24;;;;;;;51.30;24.97;;;;;;;;;;752024;184;617214;-71
2021/01/09 07:33:50;;;;;;;44.30;24.00;;;;;;;;;;753616;184;979406;-72
2021/01/09 07:36:16;;;;;;;56.17;23.83;;;;;;;;;;753078;183;621997;-72
2021/01/09 07:38:43;;;;;;;51.60;25.10;;;;;;;;;;753184;183;624780;-72
2021/01/09 07:41:09;;;;;;;44.60;23.20;;;;;;;;;;743929;184;919085;-71
2021/01/09 07:43:37;;;;;;;62.83;27.73;;;;;;;;;;752291;184;919365;-72
2021/01/09 07:46:18;;;;;;;53.33;26.20;;;;;;;;;;757195;183;919308;-73
2021/01/09 07:48:44;;;;;;;62.43;28.70;;;;;;;;;;758799;182;630109;-73
2021/01/09 07:51:10;;;;;;;71.03;34.40;;;;;;;;;;781033;178;634501;-72
2021/01/09 07:53:36;;;;;;;62.43;31.80;;;;;;;;;;787233;179;628617;-72
2021/01/09 07:56:02;;;;;;;63.47;32.10;;;;;;;;;;778216;177;654274;-73
2021/01/09 07:58:33;;;;;;;76.30;35.33;;;;;;;;;;783277;178;918196;-73
2021/01/09 08:00:59;;;;;;;63.07;30.80;;;;;;;;;;776951;177;919414;-73
2021/01/09 08:03:25;;;;;;;61.60;30.87;;;;;;;;;;770023;180;918638;-74
2021/01/09 08:05:51;;;;;;;54.70;29.70;;;;;;;;;;773976;176;922209;-74
2021/01/09 08:08:17;;;;;;;63.23;29.67;;;;;;;;;;774300;179;918643;-74
2021/01/09 08:10:43;;;;;;;73.10;30.70;;;;;;;;;;781649;177;918889;-73
2021/01/09 08:13:09;;;;;;;68.43;31.30;;;;;;;;;;776870;178;919267;-74
2021/01/09 08:15:34;;;;;;;71.20;34.20;;;;;;;;;;772675;178;1019007;-75
2021/01/09 08:18:01;;;;;;;66.60;28.60;;;;;;;;;;783927;178;919058;-73
2021/01/09 08:20:26;;;;;;;66.37;30.77;;;;;;;;;;774020;177;918713;-74
2021/01/09 08:22:53;;;;;;;62.80;28.75;;;;;;;;;;776274;177;1430146;-75
2021/01/09 08:25:19;;;;;;;72.57;31.47;;;;;;;;;;777606;178;917646;-75
2021/01/09 08:28:00;;;;;;;61.63;27.30;;;;;;;;;;775185;178;910480;-75
2021/01/09 08:30:26;;;;;;;65.90;28.80;;;;;;;;;;771162;179;918850;-74
2021/01/09 08:32:57;;;;;;;67.10;30.60;;;;;;;;;;775105;178;918300;-74
2021/01/09 08:35:25;;;;;;;66.97;28.98;;;;;;;;;;776377;178;918548;-74
2021/01/09 08:37:50;;;;;;;68.43;31.03;;;;;;;;;;776798;178;919113;-75
2021/01/09 08:40:16;;;;;;;55.90;29.37;;;;;;;;;;775234;179;918396;-73
2021/01/09 08:42:47;;;;;;;72.13;32.00;;;;;;;;;;773161;178;1232351;-74
2021/01/09 08:45:13;;;;;;;72.93;32.30;;;;;;;;;;772373;179;919423;-74
2021/01/09 08:47:43;;;;;;;76.43;33.03;;;;;;;;;;775341;180;919752;-73
2021/01/09 08:50:06;;;;;;;61.17;30.20;;;;;;;;;;776904;178;919030;-73
2021/01/09 08:52:32;;;;;;;65.33;31.27;;;;;;;;;;774000;177;914883;-73
2021/01/09 08:54:58;;;;;;;71.57;33.67;;;;;;;;;;784486;178;1020644;-73
2021/01/09 08:57:25;;;;;;;68.53;33.87;;;;;;;;;;774420;178;915924;-73
2021/01/09 08:59:51;;;;;;;66.03;31.57;;;;;;;;;;774991;179;913321;-73
2021/01/09 09:02:16;;;;;;;72.10;34.03;;;;;;;;;;780967;178;766932;-73
2021/01/09 09:04:42;;;;;;;61.58;31.12;;;;;;;;;;782332;178;816593;-72
2021/01/09 09:07:09;;;;;;;89.17;34.50;;;;;;;;;;774916;178;919880;-72
2021/01/09 09:09:34;;;;;;;70.05;35.40;;;;;;;;;;776521;178;918375;-72
2021/01/09 09:12:00;;;;;;;75.40;35.80;;;;;;;;;;769758;180;919097;-71
2021/01/09 09:14:26;;;;;;;71.10;34.80;;;;;;;;;;779483;178;919114;-71
2021/01/09 09:16:56;;;;;;;77.97;38.07;;;;;;;;;;775183;178;918888;-69
2021/01/09 09:19:22;;;;;;;63.83;34.27;;;;;;;;;;776830;178;919018;-70
2021/01/09 09:21:48;;;;;;;65.43;31.27;;;;;;;;;;772873;178;919434;-71
2021/01/09 09:24:14;;;;;;;56.13;28.80;;;;;;;;;;775763;177;918554;-71
2021/01/09 09:26:40;;;;;;;69.83;33.43;;;;;;;;;;782965;178;918329;-69
2021/01/09 09:29:06;;;;;;;61.60;32.73;;;;;;;;;;773661;178;918511;-68
2021/01/09 09:31:32;;;;;;;59.70;29.13;;;;;;;;;;778143;177;919487;-68
2021/01/09 09:34:00;;;;;;;70.30;32.93;;;;;;;;;;775749;178;919693;-67
2021/01/09 09:36:26;;;;;;;68.93;33.27;;;;;;;;;;785160;177;921076;-67
2021/01/09 09:38:52;;;;;;;54.73;32.33;;;;;;;;;;775134;178;920059;-67
2021/01/09 09:41:18;;;;;;;58.35;28.87;;;;;;;;;;768990;178;1632340;-67
2021/01/09 09:43:49;;;;;;;60.00;31.67;;;;;;;;;;773599;179;915617;-66
2021/01/09 09:46:15;;;;;;;55.47;32.50;;;;;;;;;;779943;179;918774;-66
2021/01/09 09:48:42;;;;;;;54.30;30.27;;;;;;;;;;772345;178;1214936;-67
2021/01/09 09:51:08;;;;;;;56.77;29.80;;;;;;;;;;777599;178;918709;-66
2021/01/09 09:53:35;;;;;;;51.43;27.40;;;;;;;;;;780827;178;918863;-66
2021/01/09 09:56:05;;;;;;;59.00;28.17;;;;;;;;;;771833;178;919024;-66
2021/01/09 09:58:31;;;;;;;59.90;30.47;;;;;;;;;;775075;179;919230;-67
2021/01/09 10:00:57;;;;;;;50.80;27.75;;;;;;;;;;781582;179;918125;-67
2021/01/09 10:03:23;;;;;;;56.73;29.27;;;;;;;;;;775614;179;918897;-67
2021/01/09 10:05:55;;;;;;;53.37;29.00;;;;;;;;;;775060;178;925011;-67
2021/01/09 10:08:20;;;;;;;53.63;29.00;;;;;;;;;;776360;178;918905;-67
2021/01/09 10:10:46;;;;;;;58.27;30.80;;;;;;;;;;778551;178;1016092;-67
2021/01/09 10:13:13;;;;;;;59.80;30.83;;;;;;;;;;774542;179;917900;-66
2021/01/09 10:15:38;;;;;;;55.57;28.17;;;;;;;;;;768210;179;919395;-66
2021/01/09 10:18:04;;;;;;;66.67;31.03;;;;;;;;;;776371;178;1734000;-67
2021/01/09 10:20:30;;;;;;;68.13;34.60;;;;;;;;;;772243;178;935573;-67
2021/01/09 10:22:56;;;;;;;64.47;32.72;;;;;;;;;;781952;177;915782;-67
2021/01/09 10:25:22;;;;;;;59.97;31.53;;;;;;;;;;775593;178;954481;-67
2021/01/09 10:27:51;;;;;;;67.80;31.90;;;;;;;;;;782465;177;914606;-68
2021/01/09 10:30:14;;;;;;;66.90;31.37;;;;;;;;;;768190;176;2300428;-69
2021/01/09 10:32:39;;;;;;;57.23;29.97;;;;;;;;;;775814;178;915345;-68
2021/01/09 10:35:06;;;;;;;56.70;28.80;;;;;;;;;;779962;177;914526;-65
2021/01/09 10:37:32;;;;;;;77.33;32.07;;;;;;;;;;776234;178;915311;-68
2021/01/09 10:39:58;;;;;;;61.53;30.17;;;;;;;;;;777259;178;915603;-68
2021/01/09 10:42:24;;;;;;;55.83;30.83;;;;;;;;;;780919;179;918685;-68
2021/01/09 10:44:50;;;;;;;56.53;29.40;;;;;;;;;;775732;178;919475;-68
2021/01/09 10:47:15;;;;;;;68.10;32.50;;;;;;;;;;774971;178;925213;-68
2021/01/09 10:49:41;;;;;;;62.07;33.73;;;;;;;;;;778456;179;918287;-67
2021/01/09 10:52:07;;;;;;;56.67;29.00;;;;;;;;;;775317;179;918535;-67
2021/01/09 10:54:33;;;;;;;51.35;27.90;;;;;;;;;;771063;179;919194;-69
2021/01/09 10:56:59;;;;;;;51.53;28.23;;;;;;;;;;768571;177;1610903;-69
2021/01/09 10:59:25;;;;;;;50.57;28.43;;;;;;;;;;780372;178;919206;-69
2021/01/09 11:01:51;;;;;;;51.97;28.03;;;;;;;;;;772862;179;919606;-68
2021/01/09 11:04:18;;;;;;;50.33;27.37;;;;;;;;;;774690;179;918993;-68
2021/01/09 11:06:42;;;;;;;42.40;24.20;;;;;;;;;;778170;178;925036;-69
2021/01/09 11:09:08;;;;;;;42.90;24.83;;;;;;;;;;776299;179;918702;-67
2021/01/09 11:11:34;;;;;;;45.40;24.87;;;;;;;;;;772174;179;918511;-67
2021/01/09 11:14:00;;;;;;;45.37;25.47;;;;;;;;;;780956;179;919221;-69
2021/01/09 11:16:26;;;;;;;41.93;23.17;;;;;;;;;;774244;179;919427;-70
2021/01/09 11:18:52;;;;;;;39.40;24.27;;;;;;;;;;773913;178;1253917;-68
2021/01/09 11:21:18;;;;;;;33.15;19.08;;;;;;;;;;779386;179;919220;-67
2021/01/09 11:23:44;;;;;;;33.07;21.07;;;;;;;;;;773042;180;919002;-67
2021/01/09 11:26:12;;;;;;;36.72;21.33;;;;;;;;;;776617;178;927337;-68
2021/01/09 11:28:38;;;;;;;37.57;21.10;;;;;;;;;;772160;177;934337;-67
2021/01/09 11:31:04;;;;;;;33.93;22.23;;;;;;;;;;784863;177;918845;-67
2021/01/09 11:33:30;;;;;;;34.63;21.50;;;;;;;;;;780552;178;919596;-68
2021/01/09 11:35:56;;;;;;;39.17;22.30;;;;;;;;;;774103;178;918278;-68
2021/01/09 11:38:22;;;;;;;36.30;20.43;;;;;;;;;;774753;177;1056316;-67
2021/01/09 11:40:48;;;;;;;33.37;20.90;;;;;;;;;;771712;179;918327;-68
2021/01/09 11:43:13;;;;;;;36.40;21.07;;;;;;;;;;773186;178;919093;-68
2021/01/09 11:45:39;;;;;;;35.47;20.00;;;;;;;;;;776627;178;970635;-67
2021/01/09 11:48:05;;;;;;;34.78;21.45;;;;;;;;;;781545;178;918732;-68
2021/01/09 11:50:31;;;;;;;31.17;19.67;;;;;;;;;;777589;179;919272;-67
2021/01/09 11:52:57;;;;;;;33.83;20.33;;;;;;;;;;777044;180;918952;-67
2021/01/09 11:55:23;;;;;;;25.70;15.13;;;;;;;;;;779505;178;919010;-67
2021/01/09 11:57:49;;;;;;;27.23;15.73;;;;;;;;;;776625;178;918646;-67
2021/01/09 12:00:15;;;;;;;29.52;15.30;;;;;;;;;;770708;178;1130702;-67
2021/01/09 12:02:41;;;;;;;28.10;15.13;;;;;;;;;;782488;178;918374;-70
2021/01/09 12:05:07;;;;;;;25.20;15.17;;;;;;;;;;775714;178;919361;-68
2021/01/09 12:07:34;;;;;;;22.10;12.52;;;;;;;;;;777129;179;919153;-68
2021/01/09 12:09:59;;;;;;;30.77;16.37;;;;;;;;;;776496;178;918802;-68
2021/01/09 12:12:25;;;;;;;21.53;12.40;;;;;;;;;;767519;181;918368;-68
2021/01/09 12:14:51;;;;;;;22.97;12.20;;;;;;;;;;770079;178;919276;-67
2021/01/09 12:17:17;;;;;;;22.10;14.37;;;;;;;;;;774169;179;919022;-68
2021/01/09 12:19:43;;;;;;;23.30;16.20;;;;;;;;;;778096;179;918918;-68
2021/01/09 12:22:09;;;;;;;25.07;15.33;;;;;;;;;;772464;179;919011;-68
2021/01/09 12:24:35;;;;;;;27.50;16.15;;;;;;;;;;768715;178;920845;-68
2021/01/09 12:27:00;;;;;;;33.17;18.73;;;;;;;;;;779600;179;919390;-68
2021/01/09 12:29:28;;;;;;;27.77;17.40;;;;;;;;;;775378;179;919133;-68
2021/01/09 12:31:54;;;;;;;35.10;18.50;;;;;;;;;;770760;179;919112;-69
2021/01/09 12:34:20;;;;;;;33.72;19.92;;;;;;;;;;772632;179;918867;-68
2021/01/09 12:36:47;;;;;;;33.00;21.60;;;;;;;;;;770766;179;919121;-69
2021/01/09 12:39:11;;;;;;;46.80;22.80;;;;;;;;;;772566;178;919176;-69
2021/01/09 12:41:37;;;;;;;36.63;22.40;;;;;;;;;;775597;178;918570;-68
2021/01/09 12:44:03;;;;;;;39.83;22.30;;;;;;;;;;781356;179;919338;-68
2021/01/09 12:46:48;;;;;;;41.37;21.53;;;;;;;;;;778934;178;914830;-69
2021/01/09 12:49:15;;;;;;;37.60;21.30;;;;;;;;;;779661;176;909499;-68
2021/01/09 12:51:40;;;;;;;33.53;20.80;;;;;;;;;;773565;178;919289;-68
2021/01/09 12:54:06;;;;;;;34.20;20.37;;;;;;;;;;783197;178;919056;-69
2021/01/09 12:56:32;;;;;;;38.37;21.30;;;;;;;;;;778224;178;918854;-68
2021/01/09 12:58:58;;;;;;;34.40;19.90;;;;;;;;;;776833;178;918202;-68
2021/01/09 13:01:29;;;;;;;37.60;20.00;;;;;;;;;;775012;178;920151;-68
2021/01/09 13:03:55;;;;;;;32.67;17.77;;;;;;;;;;769658;180;918742;-69
2021/01/09 13:06:21;;;;;;;33.07;17.70;;;;;;;;;;775169;178;918890;-69
2021/01/09 13:08:46;;;;;;;34.07;19.30;;;;;;;;;;773592;178;919104;-69
2021/01/09 13:11:15;;;;;;;38.27;20.73;;;;;;;;;;782660;179;918473;-69
2021/01/09 13:13:41;;;;;;;34.08;19.20;;;;;;;;;;780691;178;942341;-69
2021/01/09 13:16:07;;;;;;;36.87;20.93;;;;;;;;;;776448;178;918489;-68
2021/01/09 13:18:33;;;;;;;42.30;21.73;;;;;;;;;;772407;178;918367;-69
2021/01/09 13:20:59;;;;;;;38.70;21.53;;;;;;;;;;773678;180;918699;-69
2021/01/09 13:23:25;;;;;;;35.70;20.20;;;;;;;;;;775227;178;917624;-69
2021/01/09 13:25:50;;;;;;;39.57;23.90;;;;;;;;;;777470;179;919437;-69
2021/01/09 13:28:16;;;;;;;41.67;19.60;;;;;;;;;;777992;178;919083;-68
2021/01/09 13:30:42;;;;;;;31.90;18.63;;;;;;;;;;778233;179;918861;-68
2021/01/09 13:33:08;;;;;;;32.40;17.50;;;;;;;;;;769793;178;920443;-68
2021/01/09 13:35:34;;;;;;;29.93;19.23;;;;;;;;;;782682;178;922274;-69
2021/01/09 13:38:00;;;;;;;28.57;17.30;;;;;;;;;;774142;178;916122;-69
2021/01/09 13:40:26;;;;;;;28.60;17.40;;;;;;;;;;778237;178;916245;-68
2021/01/09 13:42:52;;;;;;;24.30;14.40;;;;;;;;;;777954;178;907799;-69
2021/01/09 13:45:17;;;;;;;24.53;14.70;;;;;;;;;;776503;177;1018087;-69
2021/01/09 13:47:43;;;;;;;25.30;15.83;;;;;;;;;;774103;178;914387;-69
2021/01/09 13:50:09;;;;;;;20.47;12.33;;;;;;;;;;777876;178;918295;-68
2021/01/09 13:52:35;;;;;;;22.33;13.00;;;;;;;;;;775641;179;919648;-68
2021/01/09 13:55:01;;;;;;;24.00;12.87;;;;;;;;;;779566;177;918083;-69
2021/01/09 13:57:28;;;;;;;22.73;14.77;;;;;;;;;;777912;178;919386;-69
2021/01/09 13:59:53;;;;;;;22.70;13.70;;;;;;;;;;777878;178;922150;-68